Time;durP1;ratioP1;P1;durP2;ratioP2;P2;SDS_P1;SDS_P2;PMS_P1;PMS_P2;Temp;Humidity;BMP_temperature;BMP_pressure;BME280_temperature;BME280_humidity;BME280_pressure;Samples;Min_cycle;Max_cycle;Signal;HPM_P1;HPM_P2
2024/04/24 00:00:22;;;;;;;;;;;3.30;99.90;;;;;;4817662;29;20011;-85
2024/04/24 00:02:51;;;;;;;0.60;0.60;;;2.90;99.90;;;;;;4814601;29;20280;-86
2024/04/24 00:05:17;;;;;;;0.60;0.60;;;3.90;99.90;;;;;;4841523;29;20099;-86
2024/04/24 00:07:43;;;;;;;0.65;0.65;;;3.40;99.90;;;;;;4844289;29;20020;-85
2024/04/24 00:10:09;;;;;;;0.60;0.60;;;2.70;99.90;;;;;;4814905;29;20012;-86
2024/04/24 00:12:34;;;;;;;0.73;0.73;;;2.70;99.90;;;;;;4815191;29;20018;-84
2024/04/24 00:15:00;;;;;;;0.52;0.52;;;2.80;99.90;;;;;;4832814;29;20024;-85
2024/04/24 00:17:26;;;;;;;0.70;0.70;;;2.80;99.90;;;;;;4842206;29;20499;-85
2024/04/24 00:19:52;;;;;;;0.80;0.80;;;2.80;99.90;;;;;;4835464;29;20012;-86
2024/04/24 00:22:18;;;;;;;0.80;0.80;;;2.90;99.90;;;;;;4815539;29;20069;-86
2024/04/24 00:24:43;;;;;;;0.70;0.70;;;3.60;99.90;;;;;;4812613;29;20026;-84
2024/04/24 00:27:09;;;;;;;0.70;0.70;;;3.00;99.90;;;;;;4840836;29;20012;-86
2024/04/24 00:29:35;;;;;;;0.52;0.52;;;3.10;99.90;;;;;;4846298;29;20024;-87
2024/04/24 00:32:05;;;;;;;0.63;0.63;;;3.10;99.90;;;;;;4813220;29;20012;-84
2024/04/24 00:34:31;;;;;;;0.63;0.63;;;3.20;99.90;;;;;;4834722;29;20012;-84
2024/04/24 00:36:57;;;;;;;0.50;0.50;;;3.20;99.90;;;;;;4820842;29;20012;-85
2024/04/24 00:39:23;;;;;;;0.70;0.70;;;3.20;99.90;;;;;;4817601;29;20038;-83
2024/04/24 00:41:52;;;;;;;0.52;0.52;;;3.70;99.90;;;;;;4836942;29;20428;-84
2024/04/24 00:44:18;;;;;;;0.60;0.60;;;3.40;99.90;;;;;;4817508;29;20030;-82
2024/04/24 00:46:46;;;;;;;0.70;0.70;;;4.00;99.90;;;;;;4790486;29;20371;-84
2024/04/24 00:49:13;;;;;;;0.70;0.70;;;3.60;99.90;;;;;;4840110;29;20012;-82
2024/04/24 00:51:41;;;;;;;0.60;0.60;;;4.20;99.90;;;;;;4837099;29;20016;-85
2024/04/24 00:54:07;;;;;;;0.55;0.55;;;3.70;99.90;;;;;;4811916;29;20012;-85
2024/04/24 00:56:34;;;;;;;0.70;0.70;;;3.70;99.90;;;;;;4834994;29;20341;-85
2024/04/24 00:59:00;;;;;;;0.60;0.60;;;3.70;99.90;;;;;;4811112;29;20032;-84
2024/04/24 01:01:26;;;;;;;0.70;0.70;;;3.90;99.90;;;;;;4807748;29;20012;-84
2024/04/24 01:03:52;;;;;;;;;;;4.90;99.90;;;;;;4832973;29;20008;-83
2024/04/24 01:06:18;;;;;;;0.70;0.70;;;3.80;99.90;;;;;;4832116;29;19941;-84
2024/04/24 01:08:44;;;;;;;0.52;0.52;;;3.80;99.90;;;;;;4843552;29;20012;-85
2024/04/24 01:11:09;;;;;;;0.60;0.60;;;3.80;99.90;;;;;;4810867;29;20012;-81
2024/04/24 01:13:35;;;;;;;0.60;0.60;;;3.80;99.90;;;;;;4811782;29;20503;-84
2024/04/24 01:16:16;;;;;;;0.50;0.50;;;5.20;99.90;;;;;;4807113;29;20104;-82
2024/04/24 01:19:01;;;;;;;0.50;0.50;;;4.60;99.90;;;;;;4816879;29;20091;-83
2024/04/24 01:21:56;;;;;;;0.70;0.70;;;3.80;99.90;;;;;;4835788;29;20476;-83
2024/04/24 01:24:27;;;;;;;0.70;0.70;;;3.80;99.90;;;;;;4803030;29;20016;-82
2024/04/24 01:26:55;;;;;;;1.05;1.05;;;3.80;99.90;;;;;;4838522;29;20036;-86
2024/04/24 01:29:21;;;;;;;0.70;0.70;;;4.30;99.90;;;;;;4849807;29;20019;-87
2024/04/24 01:31:46;;;;;;;0.70;0.70;;;3.80;99.90;;;;;;4820445;29;20013;-90
2024/04/24 01:34:13;;;;;;;0.80;0.80;;;5.10;99.90;;;;;;4798092;29;20008;-89
2024/04/24 01:36:38;;;;;;;;;;;3.80;99.90;;;;;;4820710;29;20012;-87
2024/04/24 01:39:04;;;;;;;0.63;0.63;;;5.00;99.90;;;;;;4842411;29;20370;-88
2024/04/24 01:41:30;;;;;;;0.60;0.60;;;3.90;99.90;;;;;;4841652;29;20012;-85
2024/04/24 01:43:59;;;;;;;0.60;0.60;;;3.90;99.90;;;;;;4844732;29;20043;-87
2024/04/24 01:46:25;;;;;;;0.60;0.60;;;5.00;99.90;;;;;;4838230;29;20012;-84
2024/04/24 01:48:51;;;;;;;0.70;0.70;;;4.80;99.90;;;;;;4835924;29;20026;-85
2024/04/24 01:51:17;;;;;;;0.68;0.68;;;4.50;99.90;;;;;;4841519;29;20032;-86
2024/04/24 01:53:42;;;;;;;0.75;0.75;;;3.80;99.90;;;;;;4802627;29;20092;-86
2024/04/24 01:56:12;;;;;;;0.60;0.60;;;3.70;99.90;;;;;;4841940;29;21101;-88
2024/04/24 01:58:37;;;;;;;0.50;0.50;;;3.70;99.90;;;;;;4845969;29;20027;-87
2024/04/24 02:01:03;;;;;;;2.45;2.35;;;3.80;99.90;;;;;;4843039;29;20016;-85
2024/04/24 02:03:29;;;;;;;0.60;0.60;;;3.70;99.90;;;;;;4842278;29;20013;-85
2024/04/24 02:05:55;;;;;;;0.70;0.70;;;4.40;99.90;;;;;;4812775;29;20042;-85
2024/04/24 02:08:21;;;;;;;0.85;0.85;;;3.80;99.90;;;;;;4849034;29;20023;-85
2024/04/24 02:10:46;;;;;;;0.50;0.50;;;3.70;99.90;;;;;;4843221;29;20035;-85
2024/04/24 02:13:12;;;;;;;0.70;0.70;;;3.90;99.90;;;;;;4820886;29;20034;-82
2024/04/24 02:15:38;;;;;;;23.45;1.73;;;4.20;99.90;;;;;;4812636;29;21817;-84
2024/04/24 02:18:05;;;;;;;0.63;0.63;;;3.90;99.90;;;;;;4798760;29;20012;-84
2024/04/24 02:20:32;;;;;;;0.60;0.60;;;3.90;99.90;;;;;;4840730;29;21834;-84
2024/04/24 02:22:59;;;;;;;0.50;0.50;;;4.70;99.90;;;;;;4821195;29;20012;-85
2024/04/24 02:25:33;;;;;;;0.57;0.57;;;3.90;99.90;;;;;;4833901;29;20047;-84
2024/04/24 02:28:03;;;;;;;0.60;0.60;;;4.20;99.90;;;;;;4814198;29;20020;-83
2024/04/24 02:30:29;;;;;;;0.50;0.50;;;4.00;99.90;;;;;;4839482;29;20115;-83
2024/04/24 02:32:55;;;;;;;;;;;4.10;99.90;;;;;;4817647;29;20023;-82
2024/04/24 02:35:21;;;;;;;0.70;0.70;;;4.00;99.90;;;;;;4845855;29;19934;-82
2024/04/24 02:37:47;;;;;;;0.95;0.95;;;4.10;99.90;;;;;;4848353;29;20026;-85
2024/04/24 02:40:13;;;;;;;1.00;1.00;;;4.00;99.90;;;;;;4838647;29;20048;-83
2024/04/24 02:42:41;;;;;;;0.70;0.70;;;4.00;99.90;;;;;;4793766;29;20020;-83
2024/04/24 02:45:08;;;;;;;0.60;0.60;;;4.00;99.90;;;;;;4835227;29;20016;-81
2024/04/24 02:47:34;;;;;;;1.77;0.93;;;5.30;99.90;;;;;;4836171;29;20353;-83
2024/04/24 02:50:00;;;;;;;0.63;0.63;;;5.10;99.90;;;;;;4836987;29;20024;-84
2024/04/24 02:52:26;;;;;;;0.60;0.60;;;3.90;99.90;;;;;;4787367;29;20361;-84
2024/04/24 02:54:51;;;;;;;0.70;0.70;;;3.90;99.90;;;;;;4842333;29;20022;-83
2024/04/24 02:57:17;;;;;;;0.50;0.50;;;3.90;99.90;;;;;;4831232;29;20067;-84
2024/04/24 02:59:43;;;;;;;0.60;0.60;;;3.90;99.90;;;;;;4837091;29;20024;-83
2024/04/24 03:02:09;;;;;;;0.60;0.60;;;5.30;99.90;;;;;;4837338;29;20012;-88
2024/04/24 03:04:35;;;;;;;0.60;0.60;;;4.10;99.90;;;;;;4839013;29;20027;-87
2024/04/24 03:07:00;;;;;;;0.60;0.60;;;4.70;99.90;;;;;;4815348;29;20496;-85
2024/04/24 03:09:26;;;;;;;0.45;0.45;;;4.10;99.90;;;;;;4843431;29;20356;-87
2024/04/24 03:11:52;;;;;;;0.60;0.60;;;4.20;99.90;;;;;;4832452;29;20034;-87
2024/04/24 03:14:18;;;;;;;0.70;0.70;;;4.20;99.90;;;;;;4840647;29;20146;-88
2024/04/24 03:16:44;;;;;;;0.90;0.90;;;4.20;99.90;;;;;;4843548;29;20023;-88
2024/04/24 03:19:10;;;;;;;0.60;0.60;;;4.10;99.90;;;;;;4819774;29;20016;-88
2024/04/24 03:21:38;;;;;;;0.40;0.40;;;4.20;99.90;;;;;;4848606;29;20027;-86
2024/04/24 03:24:04;;;;;;;0.60;0.60;;;4.10;99.90;;;;;;4846087;29;20032;-85
2024/04/24 03:26:30;;;;;;;0.60;0.60;;;4.10;99.90;;;;;;4821803;29;20495;-86
2024/04/24 03:28:56;;;;;;;0.60;0.60;;;4.30;99.90;;;;;;4835715;29;20021;-87
2024/04/24 03:31:22;;;;;;;0.57;0.57;;;4.00;99.90;;;;;;4791608;29;20711;-87
2024/04/24 03:33:48;;;;;;;;;;;5.30;99.90;;;;;;4795812;29;20345;-86
2024/04/24 03:36:13;;;;;;;0.60;0.60;;;3.90;99.90;;;;;;4845504;29;19934;-87
2024/04/24 03:38:41;;;;;;;0.68;0.68;;;2.90;99.90;;;;;;4838223;29;20007;-85
2024/04/24 03:41:08;;;;;;;0.70;0.70;;;4.20;99.90;;;;;;4838886;29;20465;-85
2024/04/24 03:43:35;;;;;;;0.50;0.50;;;3.90;99.90;;;;;;4820214;29;20372;-84
2024/04/24 03:46:02;;;;;;;0.50;0.50;;;3.90;99.90;;;;;;4843329;29;20016;-87
2024/04/24 03:48:28;;;;;;;;;;;3.90;99.90;;;;;;4818429;29;20013;-87
2024/04/24 03:51:00;;;;;;;0.70;0.70;;;4.90;99.90;;;;;;4849658;29;19941;-86
2024/04/24 03:53:26;;;;;;;;;;;4.00;99.90;;;;;;4847606;29;20073;-87
2024/04/24 03:55:52;;;;;;;0.60;0.60;;;4.70;99.90;;;;;;4849245;29;19954;-86
2024/04/24 03:58:18;;;;;;;0.57;0.57;;;4.70;99.90;;;;;;4797359;29;20057;-84
2024/04/24 04:00:44;;;;;;;0.93;0.93;;;5.80;99.90;;;;;;4840474;29;20020;-86
2024/04/24 04:03:13;;;;;;;0.63;0.63;;;4.10;99.90;;;;;;4795098;29;20623;-84
2024/04/24 04:05:40;;;;;;;0.60;0.60;;;4.20;99.90;;;;;;4820603;29;20469;-85
2024/04/24 04:08:06;;;;;;;;;;;5.00;99.90;;;;;;4793176;29;20018;-85
2024/04/24 04:10:32;;;;;;;0.50;0.50;;;4.10;99.90;;;;;;4812456;29;19946;-85
2024/04/24 04:13:04;;;;;;;0.60;0.60;;;4.10;99.90;;;;;;4799655;29;20020;-86
2024/04/24 04:15:30;;;;;;;;;;;4.30;99.90;;;;;;4801234;29;20026;-86
2024/04/24 04:17:58;;;;;;;0.55;0.55;;;4.20;99.90;;;;;;4828660;29;20763;-84
2024/04/24 04:20:24;;;;;;;;;;;5.70;99.90;;;;;;4775154;29;20020;-85
2024/04/24 04:22:53;;;;;;;0.50;0.50;;;6.00;99.90;;;;;;4775481;29;20434;-87
2024/04/24 04:25:19;;;;;;;0.95;0.95;;;4.00;99.90;;;;;;4777379;29;20012;-85
2024/04/24 04:27:45;;;;;;;0.65;0.65;;;4.00;99.90;;;;;;4798078;29;21157;-83
2024/04/24 04:30:12;;;;;;;0.50;0.50;;;5.10;99.90;;;;;;4798804;29;20072;-82
2024/04/24 04:32:38;;;;;;;0.60;0.60;;;5.10;99.90;;;;;;4815308;29;20012;-84
2024/04/24 04:35:05;;;;;;;0.60;0.60;;;3.40;99.90;;;;;;4803900;29;20439;-87
2024/04/24 04:37:31;;;;;;;0.60;0.60;;;3.40;99.90;;;;;;4807206;29;20024;-87
2024/04/24 04:39:57;;;;;;;0.65;0.65;;;3.20;99.90;;;;;;4801209;29;20039;-86
2024/04/24 04:42:26;;;;;;;0.57;0.57;;;5.20;99.90;;;;;;4778085;29;20027;-85
2024/04/24 04:44:53;;;;;;;0.70;0.70;;;5.40;99.90;;;;;;4762880;29;20020;-85
2024/04/24 04:47:29;;;;;;;0.80;0.80;;;3.60;99.90;;;;;;4813484;29;20069;-86
2024/04/24 04:49:59;;;;;;;0.60;0.60;;;2.80;99.90;;;;;;4759400;29;20073;-89
2024/04/24 04:52:28;;;;;;;0.50;0.50;;;3.30;99.90;;;;;;4783872;29;20001;-83
2024/04/24 04:54:54;;;;;;;0.70;0.70;;;4.60;99.90;;;;;;4779394;29;20021;-82
2024/04/24 04:57:20;;;;;;;0.63;0.63;;;3.30;99.90;;;;;;4777229;29;20013;-85
2024/04/24 04:59:47;;;;;;;0.50;0.50;;;4.20;99.90;;;;;;4734575;29;20024;-87
2024/04/24 05:02:14;;;;;;;0.60;0.60;;;5.60;99.90;;;;;;4780976;29;20012;-83
2024/04/24 05:04:40;;;;;;;;;;;3.50;99.90;;;;;;4779659;29;20073;-84
2024/04/24 05:07:06;;;;;;;0.68;0.68;;;5.50;99.90;;;;;;4784231;29;19947;-83
2024/04/24 05:09:35;;;;;;;0.60;0.60;;;3.50;99.90;;;;;;4783791;29;20032;-81
2024/04/24 05:12:03;;;;;;;0.70;0.70;;;4.30;99.90;;;;;;4780725;29;20492;-83
2024/04/24 05:14:29;;;;;;;;;;;3.40;99.90;;;;;;4808004;29;20073;-85
2024/04/24 05:17:00;;;;;;;0.70;0.70;;;3.40;99.90;;;;;;4817019;29;19935;-81
2024/04/24 05:19:29;;;;;;;0.60;0.60;;;5.10;99.90;;;;;;4804231;29;20029;-82
2024/04/24 05:21:58;;;;;;;0.70;0.70;;;3.40;99.90;;;;;;4806019;29;20032;-83
2024/04/24 05:24:24;;;;;;;0.73;0.73;;;4.60;99.90;;;;;;4800359;29;20012;-83
2024/04/24 05:29:51;;;;;;;0.65;0.65;;;4.80;99.90;;;;;;4773650;29;20032;-83
2024/04/24 05:32:18;;;;;;;0.50;0.50;;;4.00;99.90;;;;;;4789313;29;20014;-79
2024/04/24 05:34:47;;;;;;;0.70;0.70;;;5.60;99.90;;;;;;4774279;29;20013;-82
2024/04/24 05:37:13;;;;;;;0.57;0.57;;;4.10;99.90;;;;;;4795378;29;20009;-82
2024/04/24 05:39:39;;;;;;;;;;;4.00;99.90;;;;;;4799584;29;20021;-83
2024/04/24 05:42:08;;;;;;;0.50;0.50;;;4.00;99.90;;;;;;4821331;29;19978;-83
2024/04/24 05:44:34;;;;;;;0.70;0.70;;;4.00;99.90;;;;;;4846920;29;20020;-82
2024/04/24 05:47:03;;;;;;;0.60;0.60;;;5.60;99.90;;;;;;4832530;29;20025;-82
2024/04/24 05:49:32;;;;;;;0.52;0.52;;;4.00;99.90;;;;;;4825255;29;20012;-84
2024/04/24 05:54:36;;;;;;;0.60;0.60;;;4.20;99.90;;;;;;4928991;24;20049;-87
2024/04/24 05:57:03;;;;;;;0.60;0.60;;;4.60;99.90;;;;;;4799738;29;20013;-85
2024/04/24 05:59:29;;;;;;;0.43;0.43;;;6.70;99.90;;;;;;4803855;29;20070;-87
2024/04/24 06:01:55;;;;;;;0.60;0.60;;;4.60;99.90;;;;;;4833368;29;20027;-86
2024/04/24 06:04:20;;;;;;;0.60;0.60;;;6.40;99.90;;;;;;4812484;29;20023;-86
2024/04/24 06:06:46;;;;;;;0.47;0.47;;;4.90;99.90;;;;;;4801459;29;20021;-84
2024/04/24 06:09:12;;;;;;;0.45;0.45;;;7.40;99.90;;;;;;4780993;29;20024;-83
2024/04/24 06:11:40;;;;;;;0.60;0.60;;;5.10;99.90;;;;;;4817774;29;20145;-82
2024/04/24 06:14:06;;;;;;;0.63;0.63;;;6.50;99.90;;;;;;4827769;29;20437;-81
2024/04/24 06:16:32;;;;;;;0.50;0.50;;;4.60;99.90;;;;;;4822737;29;20025;-80
2024/04/24 06:18:58;;;;;;;0.55;0.55;;;4.90;99.90;;;;;;4827463;29;20013;-83
2024/04/24 06:21:28;;;;;;;2.38;2.17;;;4.80;99.90;;;;;;4777075;29;20021;-82
2024/04/24 06:23:54;;;;;;;0.68;0.68;;;4.90;99.90;;;;;;4820511;29;20040;-82
2024/04/24 06:26:20;;;;;;;0.70;0.70;;;5.80;99.90;;;;;;4818021;29;20012;-82
2024/04/24 06:28:46;;;;;;;0.70;0.70;;;5.10;99.90;;;;;;4822268;29;20211;-84
2024/04/24 06:31:15;;;;;;;0.65;0.65;;;5.10;99.90;;;;;;4805940;29;20037;-85
2024/04/24 06:33:41;;;;;;;0.50;0.50;;;5.00;99.90;;;;;;4832523;29;20027;-86
2024/04/24 06:36:07;;;;;;;0.60;0.60;;;4.90;99.90;;;;;;4818735;29;20020;-86
2024/04/24 06:38:33;;;;;;;0.50;0.50;;;4.90;99.90;;;;;;4824530;29;20017;-86
2024/04/24 06:41:02;;;;;;;0.50;0.50;;;5.90;99.90;;;;;;4830505;29;20033;-85
2024/04/24 06:43:28;;;;;;;0.60;0.60;;;4.90;99.90;;;;;;4828166;29;20060;-82
2024/04/24 06:45:54;;;;;;;0.80;0.80;;;4.80;99.90;;;;;;4774186;29;20450;-84
2024/04/24 06:48:20;;;;;;;0.50;0.50;;;5.90;99.90;;;;;;4790863;29;20008;-86
2024/04/24 06:50:46;;;;;;;0.68;0.68;;;4.80;99.90;;;;;;4793040;29;20028;-84
2024/04/24 06:53:11;;;;;;;0.60;0.60;;;6.20;99.90;;;;;;4825147;29;20066;-86
2024/04/24 06:55:37;;;;;;;0.70;0.70;;;4.90;99.90;;;;;;4828846;29;20023;-86
2024/04/24 06:58:06;;;;;;;0.60;0.60;;;4.90;99.90;;;;;;4828241;29;20440;-85
2024/04/24 07:00:33;;;;;;;0.60;0.60;;;5.10;99.90;;;;;;4810825;29;20362;-85
2024/04/24 07:03:03;;;;;;;0.50;0.50;;;4.90;99.90;;;;;;4829595;29;20036;-88
2024/04/24 07:05:29;;;;;;;0.45;0.45;;;4.90;99.90;;;;;;4824229;29;20031;-85
2024/04/24 07:07:55;;;;;;;0.50;0.50;;;6.60;99.90;;;;;;4805980;29;20017;-85
2024/04/24 07:10:21;;;;;;;0.60;0.60;;;4.90;99.90;;;;;;4804052;29;20043;-85
2024/04/24 07:13:11;;;;;;;0.68;0.68;;;5.00;99.90;;;;;;4811690;29;20032;-86
2024/04/24 07:15:41;;;;;;;0.60;0.60;;;6.70;99.90;;;;;;4832759;29;20029;-84
2024/04/24 07:18:09;;;;;;;0.60;0.60;;;5.30;99.90;;;;;;4784393;29;20027;-86
2024/04/24 07:20:35;;;;;;;0.60;0.60;;;4.00;99.90;;;;;;4829762;29;20020;-85
2024/04/24 07:23:04;;;;;;;0.60;0.60;;;6.40;99.90;;;;;;4827491;29;20021;-82
2024/04/24 07:25:30;;;;;;;0.47;0.47;;;6.10;99.90;;;;;;4835064;29;20441;-83
2024/04/24 07:27:56;;;;;;;0.50;0.50;;;6.30;99.90;;;;;;4827960;29;20020;-83
2024/04/24 07:30:22;;;;;;;0.50;0.50;;;7.10;99.90;;;;;;4802724;29;20031;-83
2024/04/24 07:32:51;;;;;;;0.70;0.70;;;4.60;99.90;;;;;;4820959;29;20070;-83
2024/04/24 07:35:17;;;;;;;0.60;0.60;;;6.30;99.90;;;;;;4824466;29;20021;-82
2024/04/24 07:37:43;;;;;;;0.60;0.60;;;6.40;99.90;;;;;;4779145;29;20023;-80
2024/04/24 07:40:12;;;;;;;0.63;0.63;;;6.20;99.90;;;;;;4827683;29;20058;-81
2024/04/24 07:42:40;;;;;;;0.70;0.70;;;6.60;99.90;;;;;;4772316;29;20028;-83
2024/04/24 07:45:07;;;;;;;0.50;0.50;;;6.50;99.90;;;;;;4820173;29;20449;-83
2024/04/24 07:47:33;;;;;;;0.63;0.63;;;6.80;99.90;;;;;;4801919;29;20041;-84
2024/04/24 07:49:59;;;;;;;0.55;0.55;;;6.80;99.90;;;;;;4826079;29;20027;-86
2024/04/24 07:52:26;;;;;;;0.55;0.55;;;6.80;99.90;;;;;;4804572;29;20021;-84
2024/04/24 07:54:52;;;;;;;1.17;1.17;;;6.80;99.90;;;;;;4800579;29;20036;-85
2024/04/24 07:57:18;;;;;;;0.40;0.40;;;6.90;99.90;;;;;;4812564;29;20020;-87
2024/04/24 07:59:49;;;;;;;0.45;0.45;;;7.00;99.90;;;;;;4835385;29;20559;-85
2024/04/24 08:02:15;;;;;;;;;;;7.10;99.90;;;;;;4793268;29;20016;-86
2024/04/24 08:04:43;;;;;;;0.40;0.40;;;7.30;99.90;;;;;;4826105;29;19935;-87
2024/04/24 08:07:11;;;;;;;2.28;1.60;;;7.40;99.90;;;;;;4790406;29;20020;-86
2024/04/24 08:09:38;;;;;;;0.45;0.45;;;7.60;99.90;;;;;;4787218;29;20016;-84
2024/04/24 08:12:05;;;;;;;0.30;0.30;;;7.90;99.90;;;;;;4805676;29;20020;-84
2024/04/24 08:14:32;;;;;;;7.93;1.10;;;8.10;99.90;;;;;;4780496;29;20031;-85
2024/04/24 08:16:58;;;;;;;0.50;0.50;;;8.00;99.90;;;;;;4806549;29;20040;-83
2024/04/24 08:19:23;;;;;;;0.60;0.60;;;7.80;99.90;;;;;;4766910;29;20277;-85
2024/04/24 08:21:49;;;;;;;0.50;0.50;;;7.60;99.90;;;;;;4823671;29;20021;-80
2024/04/24 08:24:15;;;;;;;0.40;0.40;;;7.90;99.90;;;;;;4822525;29;20055;-81
2024/04/24 08:26:41;;;;;;;0.60;0.60;;;7.90;99.90;;;;;;4821495;29;20378;-83
2024/04/24 08:29:07;;;;;;;0.52;0.52;;;8.10;99.90;;;;;;4797870;29;20021;-81
2024/04/24 08:31:33;;;;;;;0.47;0.47;;;8.30;99.90;;;;;;4793797;29;20374;-79
2024/04/24 08:33:59;;;;;;;0.30;0.30;;;8.50;99.90;;;;;;4795291;29;20020;-81
2024/04/24 08:36:25;;;;;;;0.40;0.40;;;8.50;99.90;;;;;;4816887;29;20240;-80
2024/04/24 08:38:54;;;;;;;0.45;0.45;;;8.40;99.90;;;;;;4769078;29;20021;-79
2024/04/24 08:41:20;;;;;;;0.55;0.55;;;8.40;99.90;;;;;;4795797;29;20028;-79
2024/04/24 08:43:50;;;;;;;0.38;0.38;;;8.60;99.90;;;;;;4818447;29;20069;-80
2024/04/24 08:46:18;;;;;;;0.50;0.50;;;8.70;99.90;;;;;;4800462;29;20385;-79
2024/04/24 08:48:44;;;;;;;0.40;0.40;;;8.80;99.90;;;;;;4815573;29;20031;-80
2024/04/24 08:51:10;;;;;;;;;;;8.80;99.90;;;;;;4777855;29;20021;-80
2024/04/24 08:53:43;;;;;;;0.40;0.40;;;8.80;99.90;;;;;;4817269;29;19978;-80
2024/04/24 08:56:14;;;;;;;0.50;0.50;;;8.60;99.90;;;;;;4820128;29;20044;-82
2024/04/24 08:58:47;;;;;;;0.30;0.30;;;8.40;99.90;;;;;;4812618;29;20017;-83
2024/04/24 09:01:17;;;;;;;0.50;0.50;;;8.10;99.90;;;;;;4834903;29;20030;-81
2024/04/24 09:03:48;;;;;;;0.47;0.47;;;7.90;99.90;;;;;;4825152;29;20107;-80
2024/04/24 09:06:15;;;;;;;0.40;0.40;;;7.80;99.90;;;;;;4824034;29;20021;-80
2024/04/24 09:08:43;;;;;;;0.30;0.30;;;8.80;99.90;;;;;;4820790;29;20555;-81
2024/04/24 09:11:09;;;;;;;0.40;0.40;;;7.60;99.90;;;;;;4824558;29;20020;-81
2024/04/24 09:13:35;;;;;;;0.40;0.40;;;7.70;99.90;;;;;;4830229;29;20038;-80
2024/04/24 09:16:03;;;;;;;;;;;7.50;99.90;;;;;;4804462;29;20894;-81
2024/04/24 09:18:29;;;;;;;0.40;0.40;;;7.40;99.90;;;;;;4813642;29;19942;-81
2024/04/24 09:20:56;;;;;;;0.40;0.40;;;7.30;99.90;;;;;;4822220;29;20107;-79
2024/04/24 09:23:24;;;;;;;0.50;0.50;;;7.20;99.90;;;;;;4823818;29;20025;-77
2024/04/24 09:25:51;;;;;;;0.50;0.50;;;7.70;99.90;;;;;;4825431;29;20113;-80
2024/04/24 09:28:19;;;;;;;;;;;7.40;99.90;;;;;;4824173;29;20016;-79
2024/04/24 09:30:45;;;;;;;0.57;0.57;;;7.50;99.90;;;;;;4824573;29;19960;-79
2024/04/24 09:33:14;;;;;;;0.55;0.55;;;7.80;99.90;;;;;;4823703;29;20021;-79
2024/04/24 09:35:40;;;;;;;0.50;0.50;;;7.10;99.90;;;;;;4832219;29;20020;-82
2024/04/24 09:38:06;;;;;;;0.40;0.40;;;8.30;99.90;;;;;;4828494;29;20107;-85
2024/04/24 09:40:33;;;;;;;0.50;0.50;;;8.50;99.90;;;;;;4821582;29;20016;-84
2024/04/24 09:43:00;;;;;;;0.40;0.40;;;8.60;99.90;;;;;;4779450;29;20017;-82
2024/04/24 09:45:31;;;;;;;0.40;0.40;;;8.60;99.90;;;;;;4830435;29;20096;-80
2024/04/24 09:47:57;;;;;;;0.40;0.40;;;8.50;99.90;;;;;;4822134;29;20020;-82
2024/04/24 09:50:24;;;;;;;0.40;0.40;;;8.50;99.90;;;;;;4825759;29;20027;-82
2024/04/24 09:52:50;;;;;;;0.50;0.50;;;8.60;99.90;;;;;;4832288;29;20020;-81
2024/04/24 09:55:16;;;;;;;0.40;0.40;;;8.70;99.90;;;;;;4824116;29;20036;-83
2024/04/24 09:57:45;;;;;;;0.40;0.40;;;8.90;99.90;;;;;;4831994;29;20051;-83
2024/04/24 10:00:13;;;;;;;0.82;0.82;;;9.10;99.90;;;;;;4827395;29;20039;-82
2024/04/24 10:02:43;;;;;;;0.30;0.30;;;9.20;99.90;;;;;;4808689;29;20024;-82
2024/04/24 10:05:22;;;;;;;0.40;0.40;;;9.20;99.90;;;;;;4804429;29;20020;-82
2024/04/24 10:08:24;;;;;;;0.40;0.40;;;9.60;99.90;;;;;;4829411;29;20036;-85
2024/04/24 10:10:52;;;;;;;0.40;0.40;;;9.30;99.90;;;;;;4821156;29;20016;-83
2024/04/24 10:13:21;;;;;;;0.40;0.40;;;9.30;99.90;;;;;;4826811;29;20029;-83
2024/04/24 10:16:03;;;;;;;0.50;0.50;;;9.40;99.90;;;;;;4800741;29;20021;-81
2024/04/24 10:18:29;;;;;;;0.40;0.40;;;9.40;99.90;;;;;;4827274;29;20045;-84
2024/04/24 10:20:56;;;;;;;0.40;0.40;;;9.10;99.90;;;;;;4824781;29;20072;-83
2024/04/24 10:23:26;;;;;;;0.50;0.50;;;8.60;99.90;;;;;;4805922;29;20034;-84
2024/04/24 10:25:54;;;;;;;0.60;0.60;;;8.00;99.90;;;;;;4820140;29;20020;-84
2024/04/24 10:28:21;;;;;;;0.50;0.50;;;7.80;99.90;;;;;;4825116;29;20031;-82
2024/04/24 10:30:52;;;;;;;0.38;0.38;;;7.90;99.90;;;;;;4830063;29;20111;-83
2024/04/24 10:33:19;;;;;;;0.40;0.40;;;8.10;99.90;;;;;;4820583;29;20021;-86
2024/04/24 10:35:45;;;;;;;0.85;0.63;;;8.20;99.90;;;;;;4819619;29;20021;-82
2024/04/24 10:38:13;;;;;;;;;;;8.30;99.90;;;;;;4801124;29;20068;-82
2024/04/24 10:40:39;;;;;;;0.40;0.40;;;8.50;99.90;;;;;;4795174;29;20628;-83
2024/04/24 10:43:06;;;;;;;0.57;0.57;;;8.80;99.90;;;;;;4819377;29;20020;-82
2024/04/24 10:45:38;;;;;;;0.35;0.35;;;9.20;99.90;;;;;;4820801;29;20027;-82
2024/04/24 10:48:08;;;;;;;0.40;0.40;;;9.40;99.90;;;;;;4804446;29;20020;-83
2024/04/24 10:50:37;;;;;;;0.50;0.50;;;8.90;99.90;;;;;;4831689;29;20021;-83
2024/04/24 10:53:04;;;;;;;0.40;0.40;;;8.10;99.90;;;;;;4830003;29;20023;-83
2024/04/24 10:55:30;;;;;;;0.47;0.47;;;7.40;99.90;;;;;;4781793;29;20078;-87
2024/04/24 10:57:56;;;;;;;0.57;0.57;;;7.10;99.90;;;;;;4801558;29;20032;-82
2024/04/24 11:00:24;;;;;;;0.50;0.50;;;7.40;99.90;;;;;;4802226;29;20020;-82
2024/04/24 11:02:53;;;;;;;0.50;0.50;;;6.90;99.90;;;;;;4829061;29;20016;-83
2024/04/24 11:05:20;;;;;;;0.50;0.50;;;7.30;99.90;;;;;;4827633;29;20029;-82
2024/04/24 11:08:00;;;;;;;0.52;0.52;;;7.30;99.90;;;;;;4801720;29;20049;-84
2024/04/24 11:10:30;;;;;;;0.50;0.50;;;7.70;99.90;;;;;;4794438;29;20036;-83
2024/04/24 11:12:57;;;;;;;2.05;1.35;;;7.90;99.90;;;;;;4825422;29;20020;-83
2024/04/24 11:15:28;;;;;;;0.50;0.50;;;8.10;99.90;;;;;;4759498;29;20077;-83
2024/04/24 11:17:54;;;;;;;0.60;0.60;;;8.10;99.90;;;;;;4796968;29;20149;-79
2024/04/24 11:20:22;;;;;;;0.50;0.50;;;8.20;99.90;;;;;;4797212;29;20017;-84
2024/04/24 11:22:48;;;;;;;0.47;0.47;;;8.40;99.90;;;;;;4825675;29;20021;-83
2024/04/24 11:25:16;;;;;;;0.43;0.43;;;9.80;99.90;;;;;;4778053;29;20053;-84
2024/04/24 11:27:44;;;;;;;0.50;0.50;;;9.00;99.90;;;;;;4728093;29;20031;-82
2024/04/24 11:30:12;;;;;;;0.60;0.60;;;9.10;99.90;;;;;;4820227;29;20034;-84
2024/04/24 11:32:39;;;;;;;0.30;0.30;;;9.20;99.90;;;;;;4797676;29;20028;-81
2024/04/24 11:35:07;;;;;;;0.50;0.50;;;9.10;99.90;;;;;;4802258;29;20034;-84
2024/04/24 11:37:34;;;;;;;1.38;1.38;;;9.10;99.90;;;;;;4825317;29;20020;-81
2024/04/24 11:40:00;;;;;;;0.50;0.50;;;8.90;99.90;;;;;;4815050;29;20021;-83
2024/04/24 11:42:26;;;;;;;;;;;8.80;99.90;;;;;;4819707;29;20021;-81
2024/04/24 11:44:52;;;;;;;0.50;0.50;;;8.80;99.90;;;;;;4828910;29;19945;-84
2024/04/24 11:47:18;;;;;;;0.43;0.43;;;8.70;99.90;;;;;;4824719;29;20021;-82
2024/04/24 11:49:52;;;;;;;0.40;0.40;;;8.80;99.90;;;;;;4816854;29;20018;-82
2024/04/24 11:52:19;;;;;;;0.50;0.50;;;9.00;99.90;;;;;;4828577;29;20028;-79
2024/04/24 11:54:54;;;;;;;0.40;0.40;;;9.20;99.90;;;;;;4820827;29;20020;-80
2024/04/24 11:57:20;;;;;;;0.50;0.50;;;9.50;99.90;;;;;;4823432;29;20021;-81
2024/04/24 11:59:47;;;;;;;0.40;0.40;;;9.60;99.90;;;;;;4819474;29;20127;-81
2024/04/24 12:02:18;;;;;;;0.40;0.40;;;9.60;99.90;;;;;;4823982;29;20020;-81
2024/04/24 12:04:45;;;;;;;0.65;0.65;;;9.50;99.90;;;;;;4803065;29;20017;-82
2024/04/24 12:07:12;;;;;;;0.40;0.40;;;10.00;99.90;;;;;;4825234;29;20616;-81
2024/04/24 12:09:38;;;;;;;0.60;0.60;;;10.20;99.90;;;;;;4818467;29;20040;-80
2024/04/24 12:12:06;;;;;;;0.40;0.40;;;10.20;99.90;;;;;;4823386;29;20020;-78
2024/04/24 12:14:37;;;;;;;0.40;0.40;;;10.00;99.90;;;;;;4774367;29;20068;-81
2024/04/24 12:17:05;;;;;;;0.32;0.32;;;9.80;99.90;;;;;;4809554;29;20024;-79
2024/04/24 12:19:31;;;;;;;0.70;0.70;;;9.60;99.90;;;;;;4818632;29;20485;-79
2024/04/24 12:21:57;;;;;;;0.40;0.40;;;9.40;99.90;;;;;;4822620;29;20031;-79
2024/04/24 12:24:25;;;;;;;0.80;0.80;;;9.60;99.90;;;;;;4818088;29;20021;-80
2024/04/24 12:26:53;;;;;;;0.40;0.40;;;9.80;99.90;;;;;;4798521;29;20035;-79
2024/04/24 12:29:25;;;;;;;0.40;0.40;;;9.60;99.90;;;;;;4803433;29;20078;-82
2024/04/24 12:31:51;;;;;;;0.50;0.50;;;10.00;99.90;;;;;;4803788;29;20061;-84
2024/04/24 12:34:19;;;;;;;0.35;0.35;;;8.40;99.90;;;;;;4809034;29;20709;-84
2024/04/24 12:36:47;;;;;;;0.38;0.38;;;7.80;99.90;;;;;;4785500;29;20373;-84
2024/04/24 12:39:13;;;;;;;0.38;0.38;;;7.50;99.90;;;;;;4807771;29;20029;-81
2024/04/24 12:41:39;;;;;;;0.50;0.50;;;7.30;99.90;;;;;;4808994;29;20065;-83
2024/04/24 12:44:05;;;;;;;0.55;0.55;;;7.30;99.90;;;;;;4807613;29;20017;-85
2024/04/24 12:46:32;;;;;;;0.60;0.60;;;7.50;99.90;;;;;;4830695;29;20021;-84
2024/04/24 12:49:01;;;;;;;0.40;0.40;;;8.00;99.90;;;;;;4823255;29;20490;-84
2024/04/24 12:51:28;;;;;;;0.50;0.50;;;7.50;99.90;;;;;;4760477;29;20043;-85
2024/04/24 12:53:54;;;;;;;0.40;0.40;;;6.20;99.90;;;;;;4822100;29;20408;-82
2024/04/24 12:56:21;;;;;;;0.43;0.43;;;8.60;99.90;;;;;;4821416;29;20021;-84
2024/04/24 12:58:47;;;;;;;0.40;0.40;;;8.70;99.90;;;;;;4775053;29;20462;-82
2024/04/24 13:01:20;;;;;;;0.55;0.55;;;9.00;99.90;;;;;;4827617;29;20021;-85
2024/04/24 13:03:46;;;;;;;0.50;0.50;;;8.80;99.90;;;;;;4811614;29;20033;-82
2024/04/24 13:06:16;;;;;;;0.70;0.70;;;8.80;99.90;;;;;;4812159;29;20110;-83
2024/04/24 13:08:43;;;;;;;0.40;0.40;;;8.90;99.90;;;;;;4776465;29;20017;-83